sensor_id;sensor_type;location;lat;lon;timestamp;P1;durP1;ratioP1;P2;durP2;ratioP2
78561;SDS011;68963;52.138;5.446;2023-04-03T00:00:49;6.10;;;1.55;;
78561;SDS011;68963;52.138;5.446;2023-04-03T00:03:16;4.90;;;1.20;;
78561;SDS011;68963;52.138;5.446;2023-04-03T00:05:44;3.65;;;1.30;;
78561;SDS011;68963;52.138;5.446;2023-04-03T00:08:12;3.83;;;1.10;;
78561;SDS011;68963;52.138;5.446;2023-04-03T00:10:39;4.43;;;1.40;;
78561;SDS011;68963;52.138;5.446;2023-04-03T00:13:06;4.25;;;1.15;;
78561;SDS011;68963;52.138;5.446;2023-04-03T00:15:33;5.32;;;1.67;;
78561;SDS011;68963;52.138;5.446;2023-04-03T00:18:01;4.13;;;1.55;;
78561;SDS011;68963;52.138;5.446;2023-04-03T00:20:28;5.88;;;1.60;;
78561;SDS011;68963;52.138;5.446;2023-04-03T00:22:55;5.43;;;1.60;;
78561;SDS011;68963;52.138;5.446;2023-04-03T00:25:21;5.60;;;1.27;;
78561;SDS011;68963;52.138;5.446;2023-04-03T00:27:48;5.15;;;1.20;;
78561;SDS011;68963;52.138;5.446;2023-04-03T00:30:16;4.57;;;1.35;;
78561;SDS011;68963;52.138;5.446;2023-04-03T00:32:44;4.68;;;1.60;;
78561;SDS011;68963;52.138;5.446;2023-04-03T00:35:11;5.82;;;1.52;;
78561;SDS011;68963;52.138;5.446;2023-04-03T00:37:41;5.05;;;1.60;;
78561;SDS011;68963;52.138;5.446;2023-04-03T00:40:09;4.85;;;1.60;;
78561;SDS011;68963;52.138;5.446;2023-04-03T00:42:36;4.93;;;1.20;;
78561;SDS011;68963;52.138;5.446;2023-04-03T00:47:30;4.25;;;1.50;;
78561;SDS011;68963;52.138;5.446;2023-04-03T00:49:57;4.57;;;1.33;;
78561;SDS011;68963;52.138;5.446;2023-04-03T00:52:25;4.80;;;1.70;;
78561;SDS011;68963;52.138;5.446;2023-04-03T00:54:58;5.03;;;1.80;;
78561;SDS011;68963;52.138;5.446;2023-04-03T00:57:28;4.05;;;1.48;;
78561;SDS011;68963;52.138;5.446;2023-04-03T00:59:58;4.30;;;1.58;;
78561;SDS011;68963;52.138;5.446;2023-04-03T01:02:29;4.97;;;1.55;;
78561;SDS011;68963;52.138;5.446;2023-04-03T01:04:55;5.65;;;1.75;;
78561;SDS011;68963;52.138;5.446;2023-04-03T01:07:23;5.22;;;1.70;;
78561;SDS011;68963;52.138;5.446;2023-04-03T01:09:56;6.00;;;1.90;;
78561;SDS011;68963;52.138;5.446;2023-04-03T01:12:26;5.72;;;1.70;;
78561;SDS011;68963;52.138;5.446;2023-04-03T01:14:58;4.82;;;1.60;;
78561;SDS011;68963;52.138;5.446;2023-04-03T01:17:43;5.57;;;1.55;;
78561;SDS011;68963;52.138;5.446;2023-04-03T01:25:42;4.03;;;1.48;;
78561;SDS011;68963;52.138;5.446;2023-04-03T01:28:11;5.07;;;1.70;;
78561;SDS011;68963;52.138;5.446;2023-04-03T01:30:56;4.05;;;1.45;;
78561;SDS011;68963;52.138;5.446;2023-04-03T01:33:24;6.63;;;1.70;;
78561;SDS011;68963;52.138;5.446;2023-04-03T01:35:51;4.63;;;1.60;;
78561;SDS011;68963;52.138;5.446;2023-04-03T01:38:18;5.78;;;1.60;;
78561;SDS011;68963;52.138;5.446;2023-04-03T01:40:44;6.10;;;1.73;;
78561;SDS011;68963;52.138;5.446;2023-04-03T01:43:11;7.70;;;1.80;;
78561;SDS011;68963;52.138;5.446;2023-04-03T01:45:37;5.63;;;1.63;;
78561;SDS011;68963;52.138;5.446;2023-04-03T01:48:04;4.95;;;1.63;;
78561;SDS011;68963;52.138;5.446;2023-04-03T01:50:30;4.38;;;1.40;;
78561;SDS011;68963;52.138;5.446;2023-04-03T01:52:57;4.00;;;1.50;;
78561;SDS011;68963;52.138;5.446;2023-04-03T01:55:23;6.15;;;1.92;;
78561;SDS011;68963;52.138;5.446;2023-04-03T01:57:50;4.25;;;1.70;;
78561;SDS011;68963;52.138;5.446;2023-04-03T02:00:17;5.63;;;1.50;;
78561;SDS011;68963;52.138;5.446;2023-04-03T02:02:43;6.00;;;1.85;;
78561;SDS011;68963;52.138;5.446;2023-04-03T02:05:10;4.88;;;1.50;;
78561;SDS011;68963;52.138;5.446;2023-04-03T02:07:36;4.95;;;1.50;;
78561;SDS011;68963;52.138;5.446;2023-04-03T02:10:03;4.88;;;1.60;;
78561;SDS011;68963;52.138;5.446;2023-04-03T02:12:30;5.43;;;1.63;;
78561;SDS011;68963;52.138;5.446;2023-04-03T02:14:56;4.55;;;1.60;;
78561;SDS011;68963;52.138;5.446;2023-04-03T02:17:22;6.32;;;1.80;;
78561;SDS011;68963;52.138;5.446;2023-04-03T02:19:49;5.40;;;1.60;;
78561;SDS011;68963;52.138;5.446;2023-04-03T02:22:16;6.57;;;2.00;;
78561;SDS011;68963;52.138;5.446;2023-04-03T02:24:42;4.07;;;1.52;;
78561;SDS011;68963;52.138;5.446;2023-04-03T02:27:09;8.15;;;1.90;;
78561;SDS011;68963;52.138;5.446;2023-04-03T02:29:36;5.85;;;1.75;;
78561;SDS011;68963;52.138;5.446;2023-04-03T02:32:02;5.47;;;2.03;;
78561;SDS011;68963;52.138;5.446;2023-04-03T02:34:29;4.80;;;1.88;;
78561;SDS011;68963;52.138;5.446;2023-04-03T02:36:55;5.53;;;1.75;;
78561;SDS011;68963;52.138;5.446;2023-04-03T02:39:22;8.25;;;1.85;;
78561;SDS011;68963;52.138;5.446;2023-04-03T02:41:48;6.97;;;2.00;;
78561;SDS011;68963;52.138;5.446;2023-04-03T02:44:15;8.05;;;2.05;;
78561;SDS011;68963;52.138;5.446;2023-04-03T02:46:41;5.25;;;1.80;;
78561;SDS011;68963;52.138;5.446;2023-04-03T02:49:08;6.28;;;1.92;;
78561;SDS011;68963;52.138;5.446;2023-04-03T02:51:34;5.85;;;1.92;;
78561;SDS011;68963;52.138;5.446;2023-04-03T02:54:00;5.43;;;2.03;;
78561;SDS011;68963;52.138;5.446;2023-04-03T02:56:27;5.40;;;1.80;;
78561;SDS011;68963;52.138;5.446;2023-04-03T02:58:54;5.15;;;1.90;;
78561;SDS011;68963;52.138;5.446;2023-04-03T03:01:20;6.35;;;1.90;;
78561;SDS011;68963;52.138;5.446;2023-04-03T03:03:47;7.05;;;2.00;;
78561;SDS011;68963;52.138;5.446;2023-04-03T03:06:14;7.22;;;2.00;;
78561;SDS011;68963;52.138;5.446;2023-04-03T03:08:42;6.53;;;2.13;;
78561;SDS011;68963;52.138;5.446;2023-04-03T03:11:09;5.03;;;2.00;;
78561;SDS011;68963;52.138;5.446;2023-04-03T03:13:36;5.25;;;1.80;;
78561;SDS011;68963;52.138;5.446;2023-04-03T03:16:02;4.85;;;1.83;;
78561;SDS011;68963;52.138;5.446;2023-04-03T03:18:30;5.90;;;2.30;;
78561;SDS011;68963;52.138;5.446;2023-04-03T03:20:57;6.50;;;2.00;;
78561;SDS011;68963;52.138;5.446;2023-04-03T03:23:25;7.18;;;2.00;;
78561;SDS011;68963;52.138;5.446;2023-04-03T03:25:58;7.22;;;1.98;;
78561;SDS011;68963;52.138;5.446;2023-04-03T03:28:30;5.72;;;2.00;;
78561;SDS011;68963;52.138;5.446;2023-04-03T03:30:58;5.55;;;2.05;;
78561;SDS011;68963;52.138;5.446;2023-04-03T03:33:25;6.78;;;2.17;;
78561;SDS011;68963;52.138;5.446;2023-04-03T03:35:52;5.68;;;2.10;;
78561;SDS011;68963;52.138;5.446;2023-04-03T03:38:20;5.72;;;1.95;;
78561;SDS011;68963;52.138;5.446;2023-04-03T03:40:47;6.55;;;2.30;;
78561;SDS011;68963;52.138;5.446;2023-04-03T03:43:15;6.78;;;2.00;;
78561;SDS011;68963;52.138;5.446;2023-04-03T03:45:42;6.45;;;2.20;;
78561;SDS011;68963;52.138;5.446;2023-04-03T03:48:09;5.80;;;2.03;;
78561;SDS011;68963;52.138;5.446;2023-04-03T03:50:35;6.97;;;2.13;;
78561;SDS011;68963;52.138;5.446;2023-04-03T03:53:02;6.55;;;2.47;;
78561;SDS011;68963;52.138;5.446;2023-04-03T03:55:28;6.43;;;2.05;;
78561;SDS011;68963;52.138;5.446;2023-04-03T03:57:55;9.65;;;2.88;;
78561;SDS011;68963;52.138;5.446;2023-04-03T04:00:22;6.72;;;2.30;;
78561;SDS011;68963;52.138;5.446;2023-04-03T04:02:48;5.75;;;2.17;;
78561;SDS011;68963;52.138;5.446;2023-04-03T04:05:15;7.07;;;2.30;;
78561;SDS011;68963;52.138;5.446;2023-04-03T04:07:42;6.07;;;2.20;;
78561;SDS011;68963;52.138;5.446;2023-04-03T04:10:08;7.03;;;2.35;;
78561;SDS011;68963;52.138;5.446;2023-04-03T04:12:35;7.20;;;2.50;;
78561;SDS011;68963;52.138;5.446;2023-04-03T04:15:02;5.35;;;2.03;;
78561;SDS011;68963;52.138;5.446;2023-04-03T04:17:29;6.55;;;2.40;;
78561;SDS011;68963;52.138;5.446;2023-04-03T04:19:55;7.50;;;2.30;;
78561;SDS011;68963;52.138;5.446;2023-04-03T04:22:22;6.40;;;2.17;;
78561;SDS011;68963;52.138;5.446;2023-04-03T04:24:48;7.47;;;2.33;;
78561;SDS011;68963;52.138;5.446;2023-04-03T04:27:15;7.13;;;2.70;;
78561;SDS011;68963;52.138;5.446;2023-04-03T04:29:42;7.35;;;2.28;;
78561;SDS011;68963;52.138;5.446;2023-04-03T04:32:08;7.10;;;2.38;;
78561;SDS011;68963;52.138;5.446;2023-04-03T04:34:35;5.78;;;2.20;;
78561;SDS011;68963;52.138;5.446;2023-04-03T04:37:01;9.48;;;2.63;;
78561;SDS011;68963;52.138;5.446;2023-04-03T04:39:28;8.55;;;2.83;;
78561;SDS011;68963;52.138;5.446;2023-04-03T04:41:54;5.15;;;2.22;;
78561;SDS011;68963;52.138;5.446;2023-04-03T04:44:21;7.05;;;2.58;;
78561;SDS011;68963;52.138;5.446;2023-04-03T04:46:48;6.90;;;2.45;;
78561;SDS011;68963;52.138;5.446;2023-04-03T04:49:14;8.25;;;2.30;;
78561;SDS011;68963;52.138;5.446;2023-04-03T04:51:41;7.13;;;2.47;;
78561;SDS011;68963;52.138;5.446;2023-04-03T04:54:17;7.25;;;2.05;;
78561;SDS011;68963;52.138;5.446;2023-04-03T04:56:43;7.00;;;2.35;;
78561;SDS011;68963;52.138;5.446;2023-04-03T04:59:10;5.10;;;2.25;;
78561;SDS011;68963;52.138;5.446;2023-04-03T05:01:36;6.40;;;2.50;;
78561;SDS011;68963;52.138;5.446;2023-04-03T05:04:03;7.32;;;2.40;;
78561;SDS011;68963;52.138;5.446;2023-04-03T05:06:30;8.60;;;2.80;;
78561;SDS011;68963;52.138;5.446;2023-04-03T05:08:59;7.45;;;2.80;;
78561;SDS011;68963;52.138;5.446;2023-04-03T05:11:25;8.65;;;2.80;;
78561;SDS011;68963;52.138;5.446;2023-04-03T05:13:52;7.80;;;2.70;;
78561;SDS011;68963;52.138;5.446;2023-04-03T05:16:19;5.72;;;2.00;;
78561;SDS011;68963;52.138;5.446;2023-04-03T05:18:46;6.68;;;2.40;;
78561;SDS011;68963;52.138;5.446;2023-04-03T05:21:12;5.50;;;2.00;;
78561;SDS011;68963;52.138;5.446;2023-04-03T05:23:39;6.85;;;2.45;;
78561;SDS011;68963;52.138;5.446;2023-04-03T05:26:05;7.68;;;2.40;;
78561;SDS011;68963;52.138;5.446;2023-04-03T05:28:32;7.18;;;2.10;;
78561;SDS011;68963;52.138;5.446;2023-04-03T05:30:59;6.05;;;2.63;;
78561;SDS011;68963;52.138;5.446;2023-04-03T05:33:26;8.18;;;2.28;;
78561;SDS011;68963;52.138;5.446;2023-04-03T05:35:53;7.00;;;1.85;;
78561;SDS011;68963;52.138;5.446;2023-04-03T05:38:20;8.43;;;2.40;;
78561;SDS011;68963;52.138;5.446;2023-04-03T05:40:47;7.82;;;2.70;;
78561;SDS011;68963;52.138;5.446;2023-04-03T05:43:14;7.63;;;2.30;;
78561;SDS011;68963;52.138;5.446;2023-04-03T05:45:41;5.40;;;2.30;;
78561;SDS011;68963;52.138;5.446;2023-04-03T05:48:10;6.10;;;2.60;;
78561;SDS011;68963;52.138;5.446;2023-04-03T05:50:37;8.50;;;3.30;;
78561;SDS011;68963;52.138;5.446;2023-04-03T05:53:09;6.88;;;2.35;;
78561;SDS011;68963;52.138;5.446;2023-04-03T05:55:44;11.23;;;2.95;;
78561;SDS011;68963;52.138;5.446;2023-04-03T05:58:10;6.95;;;2.35;;
78561;SDS011;68963;52.138;5.446;2023-04-03T06:00:37;7.88;;;2.45;;
78561;SDS011;68963;52.138;5.446;2023-04-03T06:03:03;6.60;;;2.40;;
78561;SDS011;68963;52.138;5.446;2023-04-03T06:05:30;10.77;;;2.80;;
78561;SDS011;68963;52.138;5.446;2023-04-03T06:07:57;7.63;;;2.55;;
78561;SDS011;68963;52.138;5.446;2023-04-03T06:10:23;6.82;;;2.40;;
78561;SDS011;68963;52.138;5.446;2023-04-03T06:12:50;7.72;;;2.20;;
78561;SDS011;68963;52.138;5.446;2023-04-03T06:15:17;6.97;;;2.72;;
78561;SDS011;68963;52.138;5.446;2023-04-03T06:17:44;8.52;;;2.60;;
78561;SDS011;68963;52.138;5.446;2023-04-03T06:20:10;7.13;;;2.30;;
78561;SDS011;68963;52.138;5.446;2023-04-03T06:22:38;5.72;;;2.60;;
78561;SDS011;68963;52.138;5.446;2023-04-03T06:25:05;6.68;;;2.50;;
78561;SDS011;68963;52.138;5.446;2023-04-03T06:27:32;7.32;;;2.45;;
78561;SDS011;68963;52.138;5.446;2023-04-03T06:29:59;5.82;;;2.35;;
78561;SDS011;68963;52.138;5.446;2023-04-03T06:32:25;5.95;;;2.13;;
78561;SDS011;68963;52.138;5.446;2023-04-03T06:34:52;7.70;;;2.60;;
78561;SDS011;68963;52.138;5.446;2023-04-03T06:37:20;7.15;;;2.45;;
78561;SDS011;68963;52.138;5.446;2023-04-03T06:39:48;9.80;;;2.97;;
78561;SDS011;68963;52.138;5.446;2023-04-03T06:42:15;9.30;;;2.33;;
78561;SDS011;68963;52.138;5.446;2023-04-03T06:44:42;7.55;;;2.30;;
78561;SDS011;68963;52.138;5.446;2023-04-03T06:47:15;8.00;;;2.53;;
78561;SDS011;68963;52.138;5.446;2023-04-03T06:49:42;8.90;;;2.15;;
78561;SDS011;68963;52.138;5.446;2023-04-03T06:52:10;7.15;;;2.30;;
78561;SDS011;68963;52.138;5.446;2023-04-03T06:54:38;7.80;;;2.60;;
78561;SDS011;68963;52.138;5.446;2023-04-03T06:57:06;7.57;;;2.40;;
78561;SDS011;68963;52.138;5.446;2023-04-03T06:59:33;6.78;;;2.30;;
78561;SDS011;68963;52.138;5.446;2023-04-03T07:02:01;6.25;;;2.30;;
78561;SDS011;68963;52.138;5.446;2023-04-03T07:04:27;5.63;;;2.08;;
78561;SDS011;68963;52.138;5.446;2023-04-03T07:06:54;5.03;;;2.17;;
78561;SDS011;68963;52.138;5.446;2023-04-03T07:09:21;5.45;;;2.05;;
78561;SDS011;68963;52.138;5.446;2023-04-03T07:11:47;6.43;;;2.45;;
78561;SDS011;68963;52.138;5.446;2023-04-03T07:14:14;8.10;;;2.20;;
78561;SDS011;68963;52.138;5.446;2023-04-03T07:16:41;7.25;;;2.13;;
78561;SDS011;68963;52.138;5.446;2023-04-03T07:19:08;5.35;;;1.90;;
78561;SDS011;68963;52.138;5.446;2023-04-03T07:21:35;7.90;;;2.10;;
78561;SDS011;68963;52.138;5.446;2023-04-03T07:24:02;9.70;;;2.30;;
78561;SDS011;68963;52.138;5.446;2023-04-03T07:26:28;6.45;;;1.92;;
78561;SDS011;68963;52.138;5.446;2023-04-03T07:28:55;5.10;;;1.92;;
78561;SDS011;68963;52.138;5.446;2023-04-03T07:31:21;4.38;;;1.50;;
78561;SDS011;68963;52.138;5.446;2023-04-03T07:33:49;6.20;;;2.10;;
78561;SDS011;68963;52.138;5.446;2023-04-03T07:36:17;5.32;;;2.00;;
78561;SDS011;68963;52.138;5.446;2023-04-03T07:38:45;6.60;;;1.92;;
78561;SDS011;68963;52.138;5.446;2023-04-03T07:41:13;6.70;;;1.65;;
78561;SDS011;68963;52.138;5.446;2023-04-03T07:43:41;7.57;;;1.90;;
78561;SDS011;68963;52.138;5.446;2023-04-03T07:46:08;5.88;;;2.03;;
78561;SDS011;68963;52.138;5.446;2023-04-03T07:48:35;6.45;;;1.85;;
78561;SDS011;68963;52.138;5.446;2023-04-03T07:51:03;8.23;;;1.70;;
78561;SDS011;68963;52.138;5.446;2023-04-03T07:53:30;5.65;;;2.00;;
78561;SDS011;68963;52.138;5.446;2023-04-03T07:55:58;6.50;;;1.85;;
78561;SDS011;68963;52.138;5.446;2023-04-03T07:58:25;6.93;;;1.77;;
78561;SDS011;68963;52.138;5.446;2023-04-03T08:00:53;4.57;;;1.90;;
78561;SDS011;68963;52.138;5.446;2023-04-03T08:03:19;5.65;;;1.60;;
78561;SDS011;68963;52.138;5.446;2023-04-03T08:05:47;8.52;;;2.00;;
78561;SDS011;68963;52.138;5.446;2023-04-03T08:10:50;5.18;;;1.73;;
78561;SDS011;68963;52.138;5.446;2023-04-03T08:13:18;5.30;;;1.80;;
78561;SDS011;68963;52.138;5.446;2023-04-03T08:15:45;6.30;;;1.50;;
78561;SDS011;68963;52.138;5.446;2023-04-03T08:18:11;5.50;;;1.67;;
78561;SDS011;68963;52.138;5.446;2023-04-03T08:20:39;5.88;;;1.55;;
78561;SDS011;68963;52.138;5.446;2023-04-03T08:23:06;5.20;;;1.33;;
78561;SDS011;68963;52.138;5.446;2023-04-03T08:25:37;5.03;;;1.50;;
78561;SDS011;68963;52.138;5.446;2023-04-03T08:28:06;6.00;;;1.75;;
78561;SDS011;68963;52.138;5.446;2023-04-03T08:30:33;4.82;;;1.80;;
78561;SDS011;68963;52.138;5.446;2023-04-03T08:33:01;5.75;;;1.52;;
78561;SDS011;68963;52.138;5.446;2023-04-03T08:35:28;5.75;;;1.40;;
78561;SDS011;68963;52.138;5.446;2023-04-03T08:37:55;5.78;;;1.50;;
78561;SDS011;68963;52.138;5.446;2023-04-03T08:40:22;4.22;;;1.35;;
78561;SDS011;68963;52.138;5.446;2023-04-03T08:43:03;4.63;;;1.38;;
78561;SDS011;68963;52.138;5.446;2023-04-03T08:46:06;4.82;;;1.30;;
78561;SDS011;68963;52.138;5.446;2023-04-03T08:48:41;4.40;;;1.40;;
78561;SDS011;68963;52.138;5.446;2023-04-03T08:51:15;4.90;;;1.08;;
78561;SDS011;68963;52.138;5.446;2023-04-03T08:53:50;3.97;;;1.00;;
78561;SDS011;68963;52.138;5.446;2023-04-03T08:56:18;3.50;;;1.08;;
78561;SDS011;68963;52.138;5.446;2023-04-03T08:58:49;3.30;;;1.08;;
78561;SDS011;68963;52.138;5.446;2023-04-03T09:01:26;3.90;;;1.00;;
78561;SDS011;68963;52.138;5.446;2023-04-03T09:03:56;3.33;;;1.10;;
78561;SDS011;68963;52.138;5.446;2023-04-03T09:06:25;4.38;;;0.80;;
78561;SDS011;68963;52.138;5.446;2023-04-03T09:17:00;3.20;;;0.75;;
78561;SDS011;68963;52.138;5.446;2023-04-03T09:19:46;2.17;;;0.60;;
78561;SDS011;68963;52.138;5.446;2023-04-03T09:22:21;2.95;;;0.60;;
78561;SDS011;68963;52.138;5.446;2023-04-03T09:25:34;2.75;;;0.60;;
78561;SDS011;68963;52.138;5.446;2023-04-03T09:27:43;2.55;;;0.60;;
78561;SDS011;68963;52.138;5.446;2023-04-03T09:30:13;2.38;;;0.60;;
78561;SDS011;68963;52.138;5.446;2023-04-03T09:32:44;1.58;;;0.47;;
78561;SDS011;68963;52.138;5.446;2023-04-03T09:35:16;3.20;;;0.70;;
78561;SDS011;68963;52.138;5.446;2023-04-03T09:40:37;2.65;;;0.55;;
78561;SDS011;68963;52.138;5.446;2023-04-03T09:45:53;4.40;;;0.80;;
78561;SDS011;68963;52.138;5.446;2023-04-03T09:48:21;2.85;;;0.63;;
78561;SDS011;68963;52.138;5.446;2023-04-03T09:53:27;3.92;;;0.70;;
78561;SDS011;68963;52.138;5.446;2023-04-03T09:56:02;3.10;;;0.50;;
78561;SDS011;68963;52.138;5.446;2023-04-03T09:58:42;3.20;;;0.70;;
78561;SDS011;68963;52.138;5.446;2023-04-03T10:01:36;2.53;;;0.60;;
78561;SDS011;68963;52.138;5.446;2023-04-03T10:04:11;2.50;;;0.65;;
78561;SDS011;68963;52.138;5.446;2023-04-03T10:06:53;2.80;;;0.60;;
78561;SDS011;68963;52.138;5.446;2023-04-03T10:09:22;2.13;;;0.47;;
78561;SDS011;68963;52.138;5.446;2023-04-03T10:14:35;3.00;;;0.57;;
78561;SDS011;68963;52.138;5.446;2023-04-03T10:20:24;2.92;;;0.68;;
78561;SDS011;68963;52.138;5.446;2023-04-03T10:28:57;2.22;;;0.60;;
78561;SDS011;68963;52.138;5.446;2023-04-03T10:34:47;2.20;;;0.60;;
78561;SDS011;68963;52.138;5.446;2023-04-03T10:37:33;2.25;;;0.50;;
78561;SDS011;68963;52.138;5.446;2023-04-03T10:48:05;5.05;;;0.70;;
78561;SDS011;68963;52.138;5.446;2023-04-03T10:50:41;1.95;;;0.52;;
78561;SDS011;68963;52.138;5.446;2023-04-03T10:56:03;2.55;;;0.63;;
78561;SDS011;68963;52.138;5.446;2023-04-03T10:58:32;2.97;;;0.65;;
78561;SDS011;68963;52.138;5.446;2023-04-03T11:03:41;3.92;;;0.80;;
78561;SDS011;68963;52.138;5.446;2023-04-03T11:06:13;2.70;;;0.68;;
78561;SDS011;68963;52.138;5.446;2023-04-03T11:08:43;4.35;;;0.60;;
78561;SDS011;68963;52.138;5.446;2023-04-03T11:11:13;2.78;;;0.70;;
78561;SDS011;68963;52.138;5.446;2023-04-03T11:13:51;3.28;;;0.80;;
78561;SDS011;68963;52.138;5.446;2023-04-03T11:16:23;2.70;;;0.70;;
78561;SDS011;68963;52.138;5.446;2023-04-03T11:18:54;3.42;;;0.70;;
78561;SDS011;68963;52.138;5.446;2023-04-03T11:21:27;4.55;;;0.80;;
78561;SDS011;68963;52.138;5.446;2023-04-03T11:23:58;2.53;;;0.70;;
78561;SDS011;68963;52.138;5.446;2023-04-03T11:26:27;4.47;;;1.00;;
78561;SDS011;68963;52.138;5.446;2023-04-03T11:29:00;5.40;;;0.85;;
78561;SDS011;68963;52.138;5.446;2023-04-03T11:31:38;4.63;;;1.15;;
78561;SDS011;68963;52.138;5.446;2023-04-03T11:36:59;3.50;;;0.73;;
78561;SDS011;68963;52.138;5.446;2023-04-03T11:39:31;5.82;;;1.20;;
78561;SDS011;68963;52.138;5.446;2023-04-03T11:47:47;4.32;;;0.80;;
78561;SDS011;68963;52.138;5.446;2023-04-03T11:53:02;3.88;;;0.80;;
78561;SDS011;68963;52.138;5.446;2023-04-03T12:08:24;3.88;;;0.70;;
78561;SDS011;68963;52.138;5.446;2023-04-03T12:19:49;4.03;;;0.70;;
78561;SDS011;68963;52.138;5.446;2023-04-03T12:22:09;3.47;;;0.73;;
78561;SDS011;68963;52.138;5.446;2023-04-03T12:24:41;3.22;;;0.60;;
78561;SDS011;68963;52.138;5.446;2023-04-03T12:30:21;10.85;;;1.25;;
78561;SDS011;68963;52.138;5.446;2023-04-03T12:32:51;3.03;;;0.70;;
78561;SDS011;68963;52.138;5.446;2023-04-03T12:38:47;2.85;;;0.70;;
78561;SDS011;68963;52.138;5.446;2023-04-03T12:44:05;2.60;;;0.70;;
78561;SDS011;68963;52.138;5.446;2023-04-03T12:46:36;2.97;;;0.70;;
78561;SDS011;68963;52.138;5.446;2023-04-03T12:49:52;3.05;;;0.77;;
78561;SDS011;68963;52.138;5.446;2023-04-03T12:52:06;4.63;;;0.80;;
78561;SDS011;68963;52.138;5.446;2023-04-03T12:54:46;2.80;;;0.63;;
78561;SDS011;68963;52.138;5.446;2023-04-03T12:57:21;2.95;;;0.80;;
78561;SDS011;68963;52.138;5.446;2023-04-03T12:59:51;5.45;;;0.85;;
78561;SDS011;68963;52.138;5.446;2023-04-03T13:02:25;3.33;;;0.90;;
78561;SDS011;68963;52.138;5.446;2023-04-03T13:04:53;3.53;;;0.80;;
78561;SDS011;68963;52.138;5.446;2023-04-03T13:07:29;3.72;;;1.00;;
78561;SDS011;68963;52.138;5.446;2023-04-03T13:12:44;3.20;;;0.88;;
78561;SDS011;68963;52.138;5.446;2023-04-03T13:15:18;3.67;;;0.93;;
78561;SDS011;68963;52.138;5.446;2023-04-03T13:17:54;2.80;;;0.80;;
78561;SDS011;68963;52.138;5.446;2023-04-03T13:20:26;3.38;;;0.80;;
78561;SDS011;68963;52.138;5.446;2023-04-03T13:22:56;3.35;;;0.88;;
78561;SDS011;68963;52.138;5.446;2023-04-03T13:25:27;3.20;;;0.90;;
78561;SDS011;68963;52.138;5.446;2023-04-03T13:27:58;4.03;;;0.90;;
78561;SDS011;68963;52.138;5.446;2023-04-03T13:30:40;4.80;;;1.17;;
78561;SDS011;68963;52.138;5.446;2023-04-03T13:35:48;3.40;;;1.10;;
78561;SDS011;68963;52.138;5.446;2023-04-03T13:38:24;5.90;;;0.90;;
78561;SDS011;68963;52.138;5.446;2023-04-03T13:40:55;2.15;;;0.60;;
78561;SDS011;68963;52.138;5.446;2023-04-03T13:43:27;4.03;;;0.77;;
78561;SDS011;68963;52.138;5.446;2023-04-03T13:46:20;3.70;;;0.70;;
78561;SDS011;68963;52.138;5.446;2023-04-03T13:48:51;4.20;;;0.98;;
78561;SDS011;68963;52.138;5.446;2023-04-03T13:51:21;4.05;;;0.82;;
78561;SDS011;68963;52.138;5.446;2023-04-03T13:53:59;4.18;;;0.82;;
78561;SDS011;68963;52.138;5.446;2023-04-03T13:56:31;3.08;;;0.85;;
78561;SDS011;68963;52.138;5.446;2023-04-03T14:01:40;4.50;;;0.80;;
78561;SDS011;68963;52.138;5.446;2023-04-03T14:04:11;3.67;;;0.90;;
78561;SDS011;68963;52.138;5.446;2023-04-03T14:06:40;2.83;;;0.90;;
78561;SDS011;68963;52.138;5.446;2023-04-03T14:09:07;3.65;;;1.00;;
78561;SDS011;68963;52.138;5.446;2023-04-03T14:11:34;3.20;;;0.98;;
78561;SDS011;68963;52.138;5.446;2023-04-03T14:14:05;3.05;;;0.85;;
78561;SDS011;68963;52.138;5.446;2023-04-03T14:16:39;3.58;;;1.00;;
78561;SDS011;68963;52.138;5.446;2023-04-03T14:19:22;3.72;;;0.85;;
78561;SDS011;68963;52.138;5.446;2023-04-03T14:21:51;3.75;;;1.10;;
78561;SDS011;68963;52.138;5.446;2023-04-03T14:24:19;3.72;;;1.10;;
78561;SDS011;68963;52.138;5.446;2023-04-03T14:26:48;4.07;;;1.00;;
78561;SDS011;68963;52.138;5.446;2023-04-03T14:29:17;6.53;;;1.50;;
78561;SDS011;68963;52.138;5.446;2023-04-03T14:31:45;4.20;;;0.95;;
78561;SDS011;68963;52.138;5.446;2023-04-03T14:36:43;5.00;;;0.93;;
78561;SDS011;68963;52.138;5.446;2023-04-03T14:39:11;3.40;;;0.93;;
78561;SDS011;68963;52.138;5.446;2023-04-03T14:41:44;5.15;;;0.90;;
78561;SDS011;68963;52.138;5.446;2023-04-03T14:44:11;3.88;;;0.80;;
78561;SDS011;68963;52.138;5.446;2023-04-03T14:46:39;5.72;;;1.20;;
78561;SDS011;68963;52.138;5.446;2023-04-03T14:49:23;5.32;;;1.20;;
78561;SDS011;68963;52.138;5.446;2023-04-03T14:51:52;4.55;;;1.20;;
78561;SDS011;68963;52.138;5.446;2023-04-03T14:54:20;6.68;;;1.20;;
78561;SDS011;68963;52.138;5.446;2023-04-03T14:56:52;6.03;;;1.08;;
78561;SDS011;68963;52.138;5.446;2023-04-03T14:59:20;3.83;;;1.10;;
78561;SDS011;68963;52.138;5.446;2023-04-03T15:01:47;4.72;;;1.10;;
78561;SDS011;68963;52.138;5.446;2023-04-03T15:04:16;4.85;;;1.38;;
78561;SDS011;68963;52.138;5.446;2023-04-03T15:06:45;5.70;;;1.05;;
78561;SDS011;68963;52.138;5.446;2023-04-03T15:09:30;4.90;;;1.10;;
78561;SDS011;68963;52.138;5.446;2023-04-03T15:11:56;3.63;;;1.00;;
78561;SDS011;68963;52.138;5.446;2023-04-03T15:14:23;5.05;;;1.10;;
78561;SDS011;68963;52.138;5.446;2023-04-03T15:17:02;4.60;;;1.10;;
78561;SDS011;68963;52.138;5.446;2023-04-03T15:19:31;4.10;;;1.13;;
78561;SDS011;68963;52.138;5.446;2023-04-03T15:22:02;4.18;;;1.10;;
78561;SDS011;68963;52.138;5.446;2023-04-03T15:24:29;3.50;;;1.00;;
78561;SDS011;68963;52.138;5.446;2023-04-03T15:26:56;4.95;;;1.10;;
78561;SDS011;68963;52.138;5.446;2023-04-03T15:29:22;3.90;;;1.38;;
78561;SDS011;68963;52.138;5.446;2023-04-03T15:31:49;3.38;;;1.00;;
78561;SDS011;68963;52.138;5.446;2023-04-03T15:34:18;5.03;;;1.20;;
78561;SDS011;68963;52.138;5.446;2023-04-03T15:36:45;3.75;;;1.10;;
78561;SDS011;68963;52.138;5.446;2023-04-03T15:39:11;4.07;;;1.17;;
78561;SDS011;68963;52.138;5.446;2023-04-03T15:41:38;4.00;;;1.00;;
78561;SDS011;68963;52.138;5.446;2023-04-03T15:44:04;4.32;;;1.20;;
78561;SDS011;68963;52.138;5.446;2023-04-03T15:46:32;5.25;;;1.30;;
78561;SDS011;68963;52.138;5.446;2023-04-03T15:48:58;5.05;;;1.40;;
78561;SDS011;68963;52.138;5.446;2023-04-03T15:51:25;4.43;;;1.20;;
78561;SDS011;68963;52.138;5.446;2023-04-03T15:53:52;4.70;;;1.27;;
78561;SDS011;68963;52.138;5.446;2023-04-03T15:56:18;4.78;;;1.13;;
78561;SDS011;68963;52.138;5.446;2023-04-03T15:58:45;4.53;;;1.33;;
78561;SDS011;68963;52.138;5.446;2023-04-03T16:01:11;4.45;;;1.08;;
78561;SDS011;68963;52.138;5.446;2023-04-03T16:03:39;3.67;;;1.10;;
78561;SDS011;68963;52.138;5.446;2023-04-03T16:06:12;4.22;;;1.10;;
78561;SDS011;68963;52.138;5.446;2023-04-03T16:08:39;5.05;;;1.20;;
78561;SDS011;68963;52.138;5.446;2023-04-03T16:11:06;3.97;;;1.20;;
78561;SDS011;68963;52.138;5.446;2023-04-03T16:13:33;5.93;;;1.48;;
78561;SDS011;68963;52.138;5.446;2023-04-03T16:16:01;4.00;;;1.20;;
78561;SDS011;68963;52.138;5.446;2023-04-03T16:18:28;4.47;;;1.17;;
78561;SDS011;68963;52.138;5.446;2023-04-03T16:20:55;4.57;;;1.23;;
78561;SDS011;68963;52.138;5.446;2023-04-03T16:23:22;5.25;;;1.20;;
78561;SDS011;68963;52.138;5.446;2023-04-03T16:25:48;5.28;;;1.30;;
78561;SDS011;68963;52.138;5.446;2023-04-03T16:28:16;4.78;;;1.20;;
78561;SDS011;68963;52.138;5.446;2023-04-03T16:30:44;3.80;;;1.00;;
78561;SDS011;68963;52.138;5.446;2023-04-03T16:33:12;3.78;;;1.00;;
78561;SDS011;68963;52.138;5.446;2023-04-03T16:35:39;3.67;;;1.20;;
78561;SDS011;68963;52.138;5.446;2023-04-03T16:38:08;4.85;;;1.20;;
78561;SDS011;68963;52.138;5.446;2023-04-03T16:40:34;5.72;;;1.20;;
78561;SDS011;68963;52.138;5.446;2023-04-03T16:43:01;5.25;;;1.10;;
78561;SDS011;68963;52.138;5.446;2023-04-03T16:45:28;4.68;;;1.10;;
78561;SDS011;68963;52.138;5.446;2023-04-03T16:47:54;5.75;;;1.30;;